createdAt,value
2022-09-13T00:03:39.660Z,1001.9
2022-09-13T00:08:44.776Z,1001.8
2022-09-13T00:13:49.876Z,1001.8
2022-09-13T00:18:54.992Z,1001.7
2022-09-13T00:24:01.086Z,1001.7
2022-09-13T00:29:07.200Z,1001.6
2022-09-13T00:34:12.329Z,1001.6
2022-09-13T00:39:18.474Z,1001.6
2022-09-13T00:44:24.490Z,1001.5
2022-09-13T00:49:30.580Z,1001.5
2022-09-13T00:54:36.682Z,1001.5
2022-09-13T00:59:42.774Z,1001.5
2022-09-13T01:04:48.862Z,1001.5
2022-09-13T01:09:54.967Z,1001.4
2022-09-13T01:15:01.055Z,1001.4
2022-09-13T01:20:07.160Z,1001.5
2022-09-13T01:25:13.264Z,1001.4
2022-09-13T01:30:19.386Z,1001.4
2022-09-13T01:35:25.438Z,1001.4
2022-09-13T01:40:30.550Z,1001.3
2022-09-13T01:45:36.653Z,1001.3
2022-09-13T01:50:42.744Z,1001.2
2022-09-13T01:55:48.835Z,1001.1
2022-09-13T02:00:53.961Z,1001.1
2022-09-13T02:05:59.066Z,1001.1
2022-09-13T02:11:04.206Z,1001
2022-09-13T02:16:09.283Z,1001
2022-09-13T02:21:15.405Z,1000.9
2022-09-13T02:26:21.487Z,1000.9
2022-09-13T02:31:27.625Z,1000.7
2022-09-13T02:36:33.677Z,1000.5
2022-09-13T02:41:39.776Z,1000.5
2022-09-13T02:46:45.866Z,1000.5
2022-09-13T02:51:51.945Z,1000.6
2022-09-13T02:56:58.081Z,1000.5
2022-09-13T03:02:04.137Z,1000.6
2022-09-13T03:07:10.241Z,1000.3
2022-09-13T03:12:16.329Z,1000.4
2022-09-13T03:17:22.422Z,1000.5
2022-09-13T03:22:27.570Z,1000.5
2022-09-13T03:27:33.645Z,1000.6
2022-09-13T03:32:39.791Z,1000.5
2022-09-13T03:37:45.824Z,1000.5
2022-09-13T03:42:51.928Z,1000.4
2022-09-13T03:47:58.025Z,1000.3
2022-09-13T03:53:04.121Z,1000.2
2022-09-13T03:58:09.226Z,1000.1
2022-09-13T04:03:14.367Z,1000.1
2022-09-13T04:08:20.431Z,1000.3
2022-09-13T04:13:26.535Z,1000.3
2022-09-13T04:18:31.650Z,1000.2
2022-09-13T04:23:36.767Z,1000.2
2022-09-13T04:28:42.861Z,1000.2
2022-09-13T04:33:48.949Z,1000.2
2022-09-13T04:38:55.044Z,1000.1
2022-09-13T04:44:01.127Z,1000.1
2022-09-13T04:49:07.232Z,1000.2
2022-09-13T04:54:13.324Z,1000.1
2022-09-13T04:59:19.423Z,1000.1
2022-09-13T05:04:25.543Z,1000.1
2022-09-13T05:09:31.627Z,1000.1
2022-09-13T05:14:37.703Z,1000
2022-09-13T05:19:43.796Z,999.9
2022-09-13T05:24:49.920Z,1000
2022-09-13T05:29:55.014Z,1000
2022-09-13T05:35:01.101Z,1000
2022-09-13T05:45:13.320Z,1000.1
2022-09-13T05:50:19.382Z,999.9
2022-09-13T05:55:25.476Z,999.8
2022-09-13T06:00:31.575Z,1000.1
2022-09-13T06:05:37.710Z,1000.3
2022-09-13T06:10:42.796Z,1000.2
2022-09-13T06:15:47.941Z,1000.2
2022-09-13T06:20:53.021Z,1000.1
2022-09-13T06:25:58.140Z,1000.2
2022-09-13T06:31:04.227Z,1000
2022-09-13T06:36:10.330Z,999.8
2022-09-13T06:41:16.452Z,999.8
2022-09-13T06:51:28.667Z,999.8
2022-09-13T06:56:34.730Z,999.8
2022-09-13T07:01:40.784Z,999.8
2022-09-13T07:06:46.893Z,999.8
2022-09-13T07:11:53.001Z,999.8
2022-09-13T07:16:59.069Z,999.8
2022-09-13T07:22:05.165Z,999.8
2022-09-13T07:27:11.282Z,999.9
2022-09-13T07:32:16.374Z,999.8
2022-09-13T07:37:22.459Z,999.9
2022-09-13T07:42:28.552Z,999.8
2022-09-13T07:47:34.691Z,999.9
2022-09-13T07:52:40.741Z,999.8
2022-09-13T07:57:46.843Z,999.8
2022-09-13T08:02:52.982Z,999.9
2022-09-13T08:07:59.036Z,1000
2022-09-13T08:13:04.151Z,999.9
2022-09-13T08:18:09.264Z,999.8
2022-09-13T08:23:15.341Z,999.8
2022-09-13T08:28:21.441Z,999.8
2022-09-13T08:33:27.534Z,999.8
2022-09-13T08:38:33.623Z,999.8
2022-09-13T08:48:45.816Z,999.7
2022-09-13T08:53:51.902Z,999.7
2022-09-13T08:58:58.017Z,999.6
2022-09-13T09:04:04.090Z,999.6
2022-09-13T09:09:10.217Z,999.6
2022-09-13T09:14:16.296Z,999.6
2022-09-13T09:19:22.378Z,999.6
2022-09-13T09:24:27.606Z,999.4
2022-09-13T09:29:33.710Z,999.4
2022-09-13T09:34:39.791Z,999.4
2022-09-13T09:39:45.839Z,999.4
2022-09-13T09:44:52.000Z,999.4
2022-09-13T09:49:57.980Z,999.3
2022-09-13T09:55:04.108Z,999.2
2022-09-13T10:00:10.161Z,999.1
2022-09-13T10:05:15.339Z,999.1
2022-09-13T10:10:20.388Z,998.9
2022-09-13T10:15:25.507Z,998.9
2022-09-13T10:20:30.635Z,999
2022-09-13T10:25:36.696Z,999
2022-09-13T10:30:42.792Z,999
2022-09-13T10:35:48.898Z,999
2022-09-13T10:40:54.995Z,999
2022-09-13T10:46:01.076Z,998.9
2022-09-13T10:51:07.172Z,998.9
2022-09-13T10:56:13.269Z,998.8
2022-09-13T11:01:19.366Z,998.7
2022-09-13T11:06:25.488Z,998.7
2022-09-13T11:11:31.629Z,998.6
2022-09-13T11:16:37.647Z,998.5
2022-09-13T11:21:43.746Z,998.4
2022-09-13T11:26:48.874Z,998.4
2022-09-13T11:31:54.950Z,998.2
2022-09-13T11:37:01.104Z,998.1
2022-09-13T11:42:07.172Z,998
2022-09-13T11:47:13.271Z,998.1
2022-09-13T11:52:19.333Z,998.1
2022-09-13T11:57:25.417Z,998.1
2022-09-13T12:02:30.526Z,998.1
2022-09-13T12:07:35.630Z,998.1
2022-09-13T12:12:40.756Z,998
2022-09-13T12:17:45.886Z,997.9
2022-09-13T12:22:51.994Z,997.8
2022-09-13T12:27:58.122Z,997.9
2022-09-13T12:33:04.196Z,997.9
2022-09-13T12:38:10.308Z,997.8
2022-09-13T12:43:16.402Z,997.7
2022-09-13T12:48:22.515Z,997.7
2022-09-13T12:53:28.633Z,997.6
2022-09-13T12:58:34.763Z,997.6
2022-09-13T13:03:40.779Z,997.6
2022-09-13T13:08:46.885Z,997.6
2022-09-13T13:13:52.983Z,997.5
2022-09-13T13:18:59.060Z,997.5
2022-09-13T13:24:04.176Z,997.4
2022-09-13T13:29:10.323Z,997.4
2022-09-13T13:34:16.372Z,997.3
2022-09-13T13:39:22.453Z,997.3
2022-09-13T13:44:28.542Z,997.2
2022-09-13T13:49:34.778Z,997.2
2022-09-13T13:54:40.818Z,997.2
2022-09-13T13:59:45.869Z,997.2
2022-09-13T14:04:51.004Z,997.1
2022-09-13T14:09:57.078Z,997.1
2022-09-13T14:15:03.147Z,997.1
2022-09-13T14:20:09.246Z,997.1
2022-09-13T14:25:15.357Z,997.1
2022-09-13T14:30:21.421Z,997.1
2022-09-13T14:35:27.529Z,997.1
2022-09-13T14:40:33.626Z,997.1
2022-09-13T14:45:39.727Z,997
2022-09-13T14:50:45.815Z,997
2022-09-13T14:55:51.945Z,997
2022-09-13T15:00:58.059Z,997
2022-09-13T15:06:04.105Z,997
2022-09-13T15:11:09.222Z,997
2022-09-13T15:16:15.341Z,997.1
2022-09-13T15:21:21.452Z,997
2022-09-13T15:26:27.545Z,997.1
2022-09-13T15:31:33.608Z,997.1
2022-09-13T15:36:39.685Z,997.1
2022-09-13T15:41:45.804Z,997.2
2022-09-13T15:46:50.895Z,997.2
2022-09-13T15:51:55.990Z,997.2
2022-09-13T15:57:01.112Z,997.1
2022-09-13T16:02:06.262Z,997.2
2022-09-13T16:07:12.372Z,997.3
2022-09-13T16:12:17.510Z,997.3
2022-09-13T16:17:22.640Z,997.2
2022-09-13T16:22:28.638Z,997.3
2022-09-13T16:27:34.746Z,997.3
2022-09-13T16:32:40.853Z,997.2
2022-09-13T16:37:46.932Z,997.2
2022-09-13T16:42:53.056Z,997.2
2022-09-13T16:47:59.182Z,997.2
2022-09-13T16:53:05.206Z,997.3
2022-09-13T16:58:11.393Z,997.2
2022-09-13T17:03:17.451Z,997.2
2022-09-13T17:08:23.571Z,997.2
2022-09-13T17:13:29.611Z,997.3
2022-09-13T17:18:35.713Z,997.4
2022-09-13T17:23:40.798Z,997.4
2022-09-13T17:28:46.945Z,997.3
2022-09-13T17:33:53.017Z,997.3
2022-09-13T17:38:58.121Z,997.3
2022-09-13T17:44:04.261Z,997.3
2022-09-13T17:49:10.285Z,997.2
2022-09-13T17:54:16.409Z,997.3
2022-09-13T17:59:21.565Z,997.3
2022-09-13T18:04:26.610Z,997.3
2022-09-13T18:09:32.705Z,997.3
2022-09-13T18:14:38.794Z,997.3
2022-09-13T18:19:44.903Z,997.4
2022-09-13T18:24:50.992Z,997.4
2022-09-13T18:29:57.077Z,997.4
2022-09-13T18:35:03.181Z,997.4
2022-09-13T18:40:09.264Z,997.4
2022-09-13T18:45:15.370Z,997.5
2022-09-13T18:50:21.454Z,997.5
2022-09-13T18:55:27.542Z,997.7
2022-09-13T19:00:33.640Z,997.7
2022-09-13T19:05:39.734Z,997.6
2022-09-13T19:10:44.848Z,997.7
2022-09-13T19:15:50.957Z,997.8
2022-09-13T19:20:57.044Z,997.7
2022-09-13T19:26:03.139Z,997.8
2022-09-13T19:31:09.237Z,997.9
2022-09-13T19:36:15.329Z,997.9
2022-09-13T19:41:21.416Z,997.9
2022-09-13T19:46:26.541Z,997.9
2022-09-13T19:51:31.651Z,997.9
2022-09-13T19:56:36.764Z,998.1
2022-09-13T20:01:41.873Z,998.1
2022-09-13T20:06:47.023Z,998.1
2022-09-13T20:11:52.110Z,998.1
2022-09-13T20:16:58.198Z,998
2022-09-13T20:22:04.298Z,998.1
2022-09-13T20:27:10.394Z,998.1
2022-09-13T20:32:16.491Z,998.1
2022-09-13T20:37:22.577Z,998.1
2022-09-13T20:42:28.678Z,998
2022-09-13T20:47:34.766Z,997.9
2022-09-13T20:52:40.850Z,997.9
2022-09-13T20:57:46.952Z,997.9
2022-09-13T21:02:53.066Z,997.9
2022-09-13T21:07:59.148Z,997.9
2022-09-13T21:13:05.230Z,997.8
2022-09-13T21:18:10.338Z,997.9
2022-09-13T21:23:16.445Z,997.9
2022-09-13T21:28:22.542Z,998
2022-09-13T21:33:28.629Z,998
2022-09-13T21:38:34.725Z,998.1
2022-09-13T21:43:40.832Z,998.2
2022-09-13T21:48:46.914Z,998.2
2022-09-13T21:53:52.042Z,998.2
2022-09-13T21:58:57.129Z,998.1
2022-09-13T22:04:03.241Z,998.1
2022-09-13T22:09:08.360Z,998.1
2022-09-13T22:14:13.472Z,998
2022-09-13T22:19:19.566Z,998.1
2022-09-13T22:24:25.653Z,998.1
2022-09-13T22:29:31.748Z,998.2
2022-09-13T22:34:37.840Z,998.1
2022-09-13T22:39:43.926Z,998.1
2022-09-13T22:44:50.025Z,998.1
2022-09-13T22:49:56.122Z,998.1
2022-09-13T22:55:02.212Z,998.1
2022-09-13T23:00:08.334Z,998.1
2022-09-13T23:05:14.405Z,998
2022-09-13T23:10:20.489Z,998
2022-09-13T23:15:26.602Z,997.9
2022-09-13T23:20:31.712Z,997.9
2022-09-13T23:25:37.795Z,997.9
2022-09-13T23:30:43.898Z,998
2022-09-13T23:35:49.987Z,998
2022-09-13T23:40:56.091Z,997.9
2022-09-13T23:46:02.296Z,997.8
2022-09-13T23:51:08.271Z,997.8
2022-09-13T23:56:13.412Z,997.8
